createdAt,value
2023-02-11T00:00:33.230Z,96.71
2023-02-11T00:01:32.239Z,96.55
2023-02-11T00:02:33.334Z,96.55
2023-02-11T00:03:32.378Z,96.55
2023-02-11T00:04:32.240Z,96.61
2023-02-11T00:05:32.215Z,96.71
2023-02-11T00:06:32.275Z,96.50
2023-02-11T00:07:32.225Z,97.03
2023-02-11T00:08:32.246Z,96.82
2023-02-11T00:09:32.223Z,96.71
2023-02-11T00:10:33.533Z,96.40
2023-02-11T00:11:32.189Z,96.19
2023-02-11T00:12:32.184Z,96.82
2023-02-11T00:13:32.161Z,96.61
2023-02-11T00:14:32.220Z,97.03
2023-02-11T00:15:32.141Z,97.03
2023-02-11T00:16:32.196Z,96.92
2023-02-11T00:17:32.131Z,97.03
2023-02-11T00:18:32.109Z,96.98
2023-02-11T00:19:33.935Z,96.46
2023-02-11T00:20:32.901Z,96.46
2023-02-11T00:21:32.159Z,96.25
2023-02-11T00:23:03.983Z,96.36
2023-02-11T00:23:32.041Z,96.15
2023-02-11T00:24:32.068Z,96.25
2023-02-11T00:25:32.056Z,96.56
2023-02-11T00:26:32.034Z,96.46
2023-02-11T00:27:32.032Z,96.36
2023-02-11T00:28:32.060Z,96.15
2023-02-11T00:29:32.054Z,96.25
2023-02-11T00:30:32.040Z,96.77
2023-02-11T00:31:32.087Z,96.62
2023-02-11T00:32:32.007Z,96.15
2023-02-11T00:33:32.988Z,95.89
2023-02-11T00:34:31.984Z,95.83
2023-02-11T00:35:31.977Z,95.79
2023-02-11T00:36:32.022Z,95.37
2023-02-11T00:37:31.969Z,95.89
2023-02-11T00:38:31.938Z,96.00
2023-02-11T00:39:31.937Z,96.00
2023-02-11T00:40:31.915Z,95.79
2023-02-11T00:41:31.918Z,95.89
2023-02-11T00:42:31.925Z,95.79
2023-02-11T00:43:31.888Z,95.89
2023-02-11T00:44:31.901Z,95.79
2023-02-11T00:45:31.896Z,95.79
2023-02-11T00:46:31.962Z,96.11
2023-02-11T00:47:31.928Z,95.79
2023-02-11T00:48:31.882Z,95.58
2023-02-11T00:49:31.868Z,95.89
2023-02-11T00:50:31.857Z,95.79
2023-02-11T00:51:31.859Z,95.79
2023-02-11T00:52:31.920Z,95.89
2023-02-11T00:53:31.828Z,96.11
2023-02-11T00:54:31.947Z,95.68
2023-02-11T00:55:31.808Z,95.68
2023-02-11T00:56:31.829Z,95.89
2023-02-11T00:57:31.837Z,95.58
2023-02-11T00:58:31.774Z,95.48
2023-02-11T00:59:31.887Z,95.95
2023-02-11T01:00:31.769Z,96.00
2023-02-11T01:01:31.820Z,95.79
2023-02-11T01:02:31.761Z,95.54
2023-02-11T01:03:31.750Z,95.85
2023-02-11T01:04:31.792Z,95.79
2023-02-11T01:05:31.805Z,95.95
2023-02-11T01:06:31.736Z,95.85
2023-02-11T01:07:31.713Z,95.54
2023-02-11T01:08:31.751Z,95.75
2023-02-11T01:09:31.730Z,95.50
2023-02-11T01:10:31.790Z,95.54
2023-02-11T01:11:31.752Z,96.06
2023-02-11T01:12:33.489Z,96.06
2023-02-11T01:13:31.685Z,95.12
2023-02-11T01:14:31.687Z,95.43
2023-02-11T01:15:31.700Z,95.85
2023-02-11T01:16:31.775Z,95.95
2023-02-11T01:17:31.658Z,95.29
2023-02-11T01:18:32.310Z,95.91
2023-02-11T01:19:31.640Z,95.08
2023-02-11T01:20:31.615Z,94.82
2023-02-11T01:21:31.691Z,94.82
2023-02-11T01:22:31.633Z,94.76
2023-02-11T01:23:31.636Z,94.62
2023-02-11T01:24:31.613Z,94.76
2023-02-11T01:25:31.607Z,94.76
2023-02-11T01:26:31.619Z,94.98
2023-02-11T01:27:31.570Z,95.29
2023-02-11T01:28:31.608Z,95.08
2023-02-11T01:29:31.554Z,94.76
2023-02-11T01:30:31.553Z,94.87
2023-02-11T01:31:31.696Z,95.08
2023-02-11T01:32:31.533Z,95.02
2023-02-11T01:33:31.538Z,95.43
2023-02-11T01:34:31.538Z,94.92
2023-02-11T01:35:31.504Z,95.39
2023-02-11T01:36:31.514Z,95.95
2023-02-11T01:37:31.565Z,95.50
2023-02-11T01:38:31.520Z,95.81
2023-02-11T01:39:31.501Z,95.12
2023-02-11T01:40:31.477Z,95.39
2023-02-11T01:41:31.453Z,95.81
2023-02-11T01:42:31.502Z,95.50
2023-02-11T01:43:31.495Z,95.75
2023-02-11T01:44:31.449Z,95.18
2023-02-11T01:45:31.468Z,95.29
2023-02-11T01:46:31.493Z,95.18
2023-02-11T01:47:31.422Z,95.18
2023-02-11T01:48:31.405Z,96.12
2023-02-11T01:49:31.523Z,95.70
2023-02-11T01:50:31.413Z,95.33
2023-02-11T01:51:31.383Z,96.16
2023-02-11T01:52:31.397Z,96.01
2023-02-11T01:53:31.397Z,95.81
2023-02-11T01:54:31.421Z,96.01
2023-02-11T01:55:31.377Z,96.01
2023-02-11T01:56:31.353Z,95.95
2023-02-11T01:57:31.361Z,96.01
2023-02-11T01:58:31.399Z,95.70
2023-02-11T01:59:31.339Z,95.91
2023-02-11T02:00:31.364Z,95.70
2023-02-11T02:01:31.430Z,95.29
2023-02-11T02:02:31.369Z,95.50
2023-02-11T02:03:31.315Z,95.18
2023-02-11T02:04:31.266Z,95.45
2023-02-11T02:05:32.276Z,95.25
2023-02-11T02:06:31.299Z,95.25
2023-02-11T02:07:31.260Z,94.93
2023-02-11T02:08:31.265Z,94.93
2023-02-11T02:09:31.272Z,95.03
2023-02-11T02:10:31.306Z,95.35
2023-02-11T02:11:31.264Z,95.03
2023-02-11T02:12:31.263Z,94.68
2023-02-11T02:13:31.271Z,94.72
2023-02-11T02:14:31.252Z,94.89
2023-02-11T02:15:31.190Z,94.99
2023-02-11T02:16:31.813Z,94.68
2023-02-11T02:17:31.175Z,94.68
2023-02-11T02:18:31.283Z,95.20
2023-02-11T02:19:31.272Z,94.57
2023-02-11T02:20:31.163Z,94.78
2023-02-11T02:21:31.168Z,94.78
2023-02-11T02:22:31.145Z,95.20
2023-02-11T02:23:31.152Z,95.09
2023-02-11T02:24:31.169Z,94.68
2023-02-11T02:25:31.162Z,94.89
2023-02-11T02:26:31.120Z,94.99
2023-02-11T02:27:31.173Z,95.09
2023-02-11T02:28:31.171Z,95.09
2023-02-11T02:29:31.085Z,94.99
2023-02-11T02:30:31.145Z,94.78
2023-02-11T02:31:31.120Z,94.47
2023-02-11T02:32:31.094Z,94.99
2023-02-11T02:33:31.074Z,94.89
2023-02-11T02:34:31.055Z,95.72
2023-02-11T02:35:31.039Z,95.14
2023-02-11T02:36:31.051Z,95.87
2023-02-11T02:37:31.073Z,95.76
2023-02-11T02:38:31.053Z,95.72
2023-02-11T02:39:31.009Z,95.45
2023-02-11T02:40:30.984Z,95.76
2023-02-11T02:41:32.011Z,95.66
2023-02-11T02:42:30.997Z,95.97
2023-02-11T02:43:31.034Z,96.08
2023-02-11T02:44:30.997Z,96.59
2023-02-11T02:45:30.993Z,96.39
2023-02-11T02:46:31.045Z,96.08
2023-02-11T02:47:30.958Z,96.08
2023-02-11T02:48:30.984Z,96.01
2023-02-11T02:49:30.933Z,96.43
2023-02-11T02:50:30.931Z,96.64
2023-02-11T02:51:30.930Z,96.64
2023-02-11T02:52:30.923Z,96.75
2023-02-11T02:53:30.964Z,96.95
2023-02-11T02:54:30.919Z,97.27
2023-02-11T02:55:30.896Z,97.20
2023-02-11T02:56:30.884Z,97.10
2023-02-11T02:57:30.879Z,97.16
2023-02-11T02:58:30.900Z,97.47
2023-02-11T02:59:30.893Z,97.16
2023-02-11T03:00:30.879Z,97.16
2023-02-11T03:01:30.840Z,97.06
2023-02-11T03:02:30.890Z,97.16
2023-02-11T03:03:30.858Z,97.16
2023-02-11T03:04:30.860Z,97.16
2023-02-11T03:05:30.848Z,97.12
2023-02-11T03:06:30.842Z,97.33
2023-02-11T03:07:31.042Z,97.01
2023-02-11T03:08:30.828Z,97.22
2023-02-11T03:09:30.801Z,97.12
2023-02-11T03:10:30.779Z,97.01
2023-02-11T03:11:30.832Z,97.22
2023-02-11T03:12:30.760Z,96.76
2023-02-11T03:13:30.752Z,96.97
2023-02-11T03:14:30.756Z,96.97
2023-02-11T03:15:30.730Z,96.55
2023-02-11T03:16:31.765Z,96.34
2023-02-11T03:17:30.764Z,96.45
2023-02-11T03:18:30.737Z,96.14
2023-02-11T03:19:30.725Z,96.34
2023-02-11T03:20:30.729Z,96.14
2023-02-11T03:21:30.697Z,96.86
2023-02-11T03:22:30.698Z,96.97
2023-02-11T03:23:30.736Z,96.97
2023-02-11T03:24:30.708Z,96.55
2023-02-11T03:25:30.728Z,96.24
2023-02-11T03:26:30.673Z,96.30
2023-02-11T03:27:30.645Z,96.55
2023-02-11T03:28:30.734Z,97.07
2023-02-11T03:29:30.647Z,96.76
2023-02-11T03:30:30.658Z,96.86
2023-02-11T03:31:30.730Z,96.41
2023-02-11T03:32:30.612Z,96.66
2023-02-11T03:33:30.613Z,96.97
2023-02-11T03:34:30.598Z,96.92
2023-02-11T03:35:30.623Z,96.92
2023-02-11T03:36:30.596Z,96.15
2023-02-11T03:37:30.581Z,96.25
2023-02-11T03:38:30.563Z,95.73
2023-02-11T03:39:30.583Z,95.73
2023-02-11T03:40:30.573Z,95.48
2023-02-11T03:41:30.574Z,95.59
2023-02-11T03:42:30.551Z,94.76
2023-02-11T03:43:30.541Z,94.96
2023-02-11T03:44:30.544Z,94.96
2023-02-11T03:45:30.605Z,94.86
2023-02-11T03:46:30.529Z,94.86
2023-02-11T03:47:30.522Z,94.76
2023-02-11T04:03:15.035Z,96.51
2023-02-11T04:04:14.958Z,95.99
2023-02-11T04:05:16.075Z,96.51
2023-02-11T04:06:16.072Z,96.20
2023-02-11T04:07:16.071Z,96.20
2023-02-11T04:08:16.097Z,96.55
2023-02-11T04:09:16.102Z,96.09
2023-02-11T04:10:16.062Z,96.20
2023-02-11T04:11:16.084Z,96.41
2023-02-11T04:12:16.039Z,96.41
2023-02-11T04:13:16.079Z,95.99
2023-02-11T04:14:16.011Z,95.89
2023-02-11T04:15:16.045Z,96.09
2023-02-11T04:16:16.034Z,97.07
2023-02-11T04:17:16.009Z,96.51
2023-02-11T04:18:15.966Z,96.82
2023-02-11T04:19:15.970Z,96.97
2023-02-11T04:20:15.973Z,96.76
2023-02-11T04:21:15.962Z,96.82
2023-02-11T04:22:15.973Z,96.72
2023-02-11T04:23:15.954Z,96.76
2023-02-11T04:24:15.923Z,96.66
2023-02-11T04:25:15.961Z,96.55
2023-02-11T04:26:15.916Z,96.61
2023-02-11T04:27:15.910Z,96.97
2023-02-11T04:28:15.979Z,96.82
2023-02-11T04:29:15.915Z,96.72
2023-02-11T04:30:15.905Z,96.82
2023-02-11T04:31:16.038Z,96.82
2023-02-11T04:32:15.884Z,96.86
2023-02-11T04:33:15.971Z,96.82
2023-02-11T04:34:15.862Z,96.55
2023-02-11T04:35:15.855Z,96.72
2023-02-11T04:36:15.862Z,96.51
2023-02-11T04:37:15.839Z,96.61
2023-02-11T04:38:15.840Z,96.51
2023-02-11T04:39:15.812Z,96.72
2023-02-11T04:40:15.793Z,97.03
2023-02-11T04:41:15.814Z,96.09
2023-02-11T04:42:15.825Z,96.09
2023-02-11T04:43:15.780Z,96.20
2023-02-11T04:44:15.766Z,96.15
2023-02-11T04:45:15.802Z,96.09
2023-02-11T04:46:15.884Z,96.36
2023-02-11T04:47:15.758Z,96.36
2023-02-11T04:48:15.782Z,96.09
2023-02-11T04:49:15.744Z,96.20
2023-02-11T04:50:15.726Z,95.89
2023-02-11T04:51:15.754Z,96.09
2023-02-11T04:52:15.710Z,96.47
2023-02-11T04:53:15.712Z,96.41
2023-02-11T04:54:15.707Z,96.04
2023-02-11T04:55:15.689Z,96.25
2023-02-11T04:56:15.688Z,97.03
2023-02-11T04:57:15.677Z,96.82
2023-02-11T04:58:15.727Z,96.67
2023-02-11T04:59:15.750Z,96.51
2023-02-11T05:00:15.678Z,96.67
2023-02-11T05:01:15.671Z,96.67
2023-02-11T05:02:15.660Z,96.67
2023-02-11T05:03:15.605Z,96.98
2023-02-11T05:04:15.680Z,96.25
2023-02-11T05:05:15.618Z,96.30
2023-02-11T05:06:15.601Z,96.36
2023-02-11T05:07:15.633Z,96.25
2023-02-11T05:08:15.602Z,96.25
2023-02-11T05:09:15.578Z,96.15
2023-02-11T05:10:15.603Z,96.04
2023-02-11T05:11:15.559Z,96.04
2023-02-11T05:12:15.572Z,96.04
2023-02-11T05:13:15.555Z,96.25
2023-02-11T05:14:15.540Z,96.04
2023-02-11T05:15:15.554Z,95.84
2023-02-11T05:16:15.561Z,96.04
2023-02-11T05:17:15.531Z,95.94
2023-02-11T05:18:15.522Z,95.90
2023-02-11T05:19:15.518Z,96.25
2023-02-11T05:20:15.506Z,96.11
2023-02-11T05:21:15.483Z,96.25
2023-02-11T05:22:15.479Z,96.21
2023-02-11T05:23:15.470Z,96.11
2023-02-11T05:24:15.458Z,96.00
2023-02-11T05:25:15.487Z,96.11
2023-02-11T05:26:15.449Z,96.11
2023-02-11T05:27:15.444Z,96.31
2023-02-11T05:28:15.500Z,96.11
2023-02-11T05:29:15.432Z,96.17
2023-02-11T05:30:15.456Z,96.27
2023-02-11T05:31:15.824Z,95.86
2023-02-11T05:32:15.406Z,95.34
2023-02-11T05:33:15.411Z,95.54
2023-02-11T05:34:15.410Z,94.98
2023-02-11T05:35:15.390Z,95.44
2023-02-11T05:36:15.425Z,94.88
2023-02-11T05:37:15.399Z,94.78
2023-02-11T05:38:15.364Z,94.88
2023-02-11T05:39:15.350Z,94.88
2023-02-11T05:40:15.350Z,94.78
2023-02-11T05:41:16.367Z,94.88
2023-02-11T05:42:15.324Z,94.36
2023-02-11T05:43:15.321Z,94.51
2023-02-11T05:44:15.333Z,94.46
2023-02-11T05:45:15.307Z,94.57
2023-02-11T05:46:15.329Z,94.78
2023-02-11T05:47:16.301Z,94.88
2023-02-11T05:48:15.299Z,94.57
2023-02-11T05:49:15.267Z,94.46
2023-02-11T05:50:15.311Z,94.57
2023-02-11T05:51:15.283Z,94.57
2023-02-11T05:52:15.772Z,94.67
2023-02-11T05:53:15.240Z,94.88
2023-02-11T05:54:15.264Z,94.67
2023-02-11T05:55:15.239Z,94.46
2023-02-11T05:56:15.244Z,94.46
2023-02-11T05:57:15.305Z,94.78
2023-02-11T05:58:15.226Z,94.88
2023-02-11T05:59:15.226Z,94.78
2023-02-11T06:00:15.196Z,94.61
2023-02-11T06:01:15.180Z,94.78
2023-02-11T06:02:15.205Z,94.92
2023-02-11T06:03:15.197Z,94.82
2023-02-11T06:04:15.169Z,95.65
2023-02-11T06:05:15.185Z,94.82
2023-02-11T06:06:15.166Z,94.92
2023-02-11T06:07:15.117Z,95.13
2023-02-11T06:08:15.117Z,95.44
2023-02-11T06:09:15.119Z,95.34
2023-02-11T06:10:15.140Z,95.23
2023-02-11T06:11:15.110Z,95.48
2023-02-11T06:12:15.090Z,95.86
2023-02-11T06:13:15.101Z,96.52
2023-02-11T06:14:15.135Z,96.27
2023-02-11T06:15:15.098Z,96.00
2023-02-11T06:16:15.133Z,96.00
2023-02-11T06:17:15.783Z,96.21
2023-02-11T06:18:16.068Z,95.96
2023-02-11T06:19:15.069Z,96.06
2023-02-11T06:20:15.051Z,96.17
2023-02-11T06:21:15.073Z,96.00
2023-02-11T06:22:15.023Z,96.17
2023-02-11T06:23:15.007Z,96.31
2023-02-11T06:24:17.431Z,95.90
2023-02-11T06:25:15.000Z,96.37
2023-02-11T06:26:15.006Z,96.37
2023-02-11T06:27:14.990Z,96.31
2023-02-11T06:28:15.053Z,96.31
2023-02-11T06:29:14.986Z,96.27
2023-02-11T06:30:14.990Z,95.90
2023-02-11T06:31:15.214Z,95.86
2023-02-11T06:32:37.043Z,95.86
2023-02-11T06:33:16.997Z,96.11
2023-02-11T06:34:14.952Z,96.27
2023-02-11T06:35:15.012Z,96.21
2023-02-11T06:36:14.955Z,95.90
2023-02-11T06:37:14.922Z,95.75
2023-02-11T06:38:14.973Z,96.06
2023-02-11T06:39:14.912Z,96.31
2023-02-11T06:40:14.902Z,96.31
2023-02-11T06:41:14.882Z,96.17
2023-02-11T06:42:14.891Z,96.27
2023-02-11T06:43:14.883Z,95.86
2023-02-11T06:44:14.863Z,96.27
2023-02-11T06:45:15.847Z,96.06
2023-02-11T06:46:14.943Z,95.96
2023-02-11T06:47:14.859Z,95.65
2023-02-11T06:48:14.863Z,95.65
2023-02-11T06:49:14.826Z,95.54
2023-02-11T06:50:14.826Z,95.54
2023-02-11T06:51:14.831Z,95.65
2023-02-11T06:52:14.807Z,95.86
2023-02-11T06:53:14.827Z,95.65
2023-02-11T06:54:14.827Z,95.86
2023-02-11T06:55:14.817Z,95.65
2023-02-11T06:56:14.770Z,95.86
2023-02-11T06:57:14.778Z,95.65
2023-02-11T06:58:14.780Z,95.54
2023-02-11T06:59:14.782Z,95.34
2023-02-11T07:00:14.790Z,95.19
2023-02-11T07:01:14.745Z,95.19
2023-02-11T07:02:14.835Z,95.50
2023-02-11T07:03:14.801Z,95.44
2023-02-11T07:04:14.728Z,95.40
2023-02-11T07:05:14.703Z,95.50
2023-02-11T07:06:14.745Z,94.98
2023-02-11T07:07:14.690Z,95.40
2023-02-11T07:08:14.713Z,95.40
2023-02-11T07:09:14.695Z,95.50
2023-02-11T07:10:14.700Z,94.98
2023-02-11T07:11:14.678Z,94.78
2023-02-11T07:12:14.646Z,94.46
2023-02-11T07:13:14.643Z,94.26
2023-02-11T07:14:14.687Z,94.73
2023-02-11T07:15:14.653Z,94.88
2023-02-11T07:16:14.728Z,94.32
2023-02-11T07:17:14.643Z,94.63
2023-02-11T07:18:14.834Z,94.36
2023-02-11T07:19:16.173Z,94.42
2023-02-11T07:20:14.703Z,94.53
2023-02-11T07:21:14.578Z,94.32
2023-02-11T07:22:14.587Z,94.01
2023-02-11T07:23:14.606Z,93.90
2023-02-11T07:24:14.570Z,93.90
2023-02-11T07:25:15.167Z,94.21
2023-02-11T07:26:14.545Z,94.01
2023-02-11T07:27:15.551Z,93.59
2023-02-11T07:28:14.637Z,93.44
2023-02-11T07:29:14.546Z,93.59
2023-02-11T07:30:14.518Z,93.18
2023-02-11T07:31:14.701Z,93.38
2023-02-11T07:32:14.567Z,93.59
2023-02-11T07:33:14.506Z,93.85
2023-02-11T07:34:14.526Z,93.90
2023-02-11T07:35:14.503Z,93.33
2023-02-11T07:36:14.532Z,93.54
2023-02-11T07:37:14.471Z,93.80
2023-02-11T07:38:14.482Z,93.23
2023-02-11T07:39:14.499Z,93.44
2023-02-11T07:40:14.436Z,93.65
2023-02-11T07:41:14.451Z,93.44
2023-02-11T07:42:14.425Z,93.54
2023-02-11T07:43:14.438Z,93.54
2023-02-11T07:44:14.446Z,93.54
2023-02-11T07:45:14.409Z,93.28
2023-02-11T07:46:14.437Z,93.23
2023-02-11T07:47:14.394Z,93.85
2023-02-11T07:48:14.387Z,93.54
2023-02-11T07:49:14.380Z,93.13
2023-02-11T07:50:14.430Z,93.13
2023-02-11T07:51:14.397Z,92.97
2023-02-11T07:52:14.361Z,93.02
2023-02-11T07:53:14.344Z,93.13
2023-02-11T07:54:15.194Z,93.13
2023-02-11T07:55:14.378Z,93.13
2023-02-11T07:56:14.344Z,92.93
2023-02-11T07:57:14.344Z,92.93
2023-02-11T07:58:14.339Z,92.72
2023-02-11T07:59:14.315Z,93.02
2023-02-11T08:00:14.305Z,92.82
2023-02-11T08:01:14.421Z,93.13
2023-02-11T08:02:14.344Z,93.02
2023-02-11T08:03:14.276Z,93.02
2023-02-11T08:04:14.292Z,93.13
2023-02-11T08:05:14.245Z,92.93
2023-02-11T08:06:14.331Z,93.13
2023-02-11T08:07:14.256Z,93.02
2023-02-11T08:08:14.286Z,93.07
2023-02-11T08:09:14.243Z,93.02
2023-02-11T08:10:14.238Z,93.18
2023-02-11T08:11:14.221Z,93.02
2023-02-11T08:12:14.250Z,93.54
2023-02-11T08:13:14.201Z,93.28
2023-02-11T08:14:14.191Z,93.70
2023-02-11T08:15:14.209Z,93.49
2023-02-11T08:16:14.210Z,93.90
2023-02-11T08:17:14.248Z,93.80
2023-02-11T08:18:15.212Z,93.59
2023-02-11T08:19:14.160Z,93.28
2023-02-11T08:20:14.150Z,94.01
2023-02-11T08:21:14.132Z,94.32
2023-02-11T08:22:14.185Z,94.11
2023-02-11T08:23:14.131Z,94.01
2023-02-11T08:24:14.686Z,94.32
2023-02-11T08:25:14.127Z,93.90
2023-02-11T08:26:14.117Z,94.01
2023-02-11T08:27:14.165Z,93.90
2023-02-11T08:28:14.145Z,94.42
2023-02-11T08:29:14.141Z,94.42
2023-02-11T08:30:14.073Z,94.32
2023-02-11T08:31:14.142Z,94.21
2023-02-11T08:32:14.124Z,94.42
2023-02-11T08:33:14.075Z,94.32
2023-02-11T08:34:14.139Z,94.32
2023-02-11T08:35:14.071Z,94.32
2023-02-11T08:36:14.063Z,94.21
2023-02-11T08:37:14.038Z,94.17
2023-02-11T08:38:14.060Z,94.42
2023-02-11T08:39:19.740Z,93.85
2023-02-11T08:40:16.039Z,93.96
2023-02-11T08:41:14.779Z,94.17
2023-02-11T08:42:14.001Z,93.85
2023-02-11T08:43:13.984Z,93.96
2023-02-11T08:44:14.027Z,93.65
2023-02-11T08:45:13.964Z,94.17
2023-02-11T08:46:14.033Z,93.90
2023-02-11T08:47:13.972Z,94.37
2023-02-11T08:48:13.937Z,94.27
2023-02-11T08:49:13.950Z,94.42
2023-02-11T08:50:13.953Z,94.42
2023-02-11T08:51:13.937Z,94.27
2023-02-11T08:52:13.936Z,94.58
2023-02-11T08:53:13.969Z,94.58
2023-02-11T08:54:13.919Z,94.58
2023-02-11T08:55:13.923Z,94.53
2023-02-11T08:56:13.937Z,94.79
2023-02-11T08:57:13.918Z,94.48
2023-02-11T08:58:13.871Z,94.58
2023-02-11T08:59:13.898Z,94.79
2023-02-11T09:00:14.740Z,94.48
2023-02-11T09:01:14.702Z,94.48
2023-02-11T09:02:13.940Z,94.48
2023-02-11T09:03:13.844Z,94.58
2023-02-11T09:04:13.841Z,94.68
2023-02-11T09:05:13.820Z,94.68
2023-02-11T09:06:14.819Z,94.68
2023-02-11T09:07:13.823Z,94.58
2023-02-11T09:08:13.837Z,94.48
2023-02-11T09:09:13.804Z,94.68
2023-02-11T09:10:13.817Z,94.37
2023-02-11T09:11:13.799Z,94.68
2023-02-11T09:12:13.818Z,94.48
2023-02-11T09:13:13.783Z,94.48
2023-02-11T09:14:13.799Z,94.74
2023-02-11T09:15:14.669Z,94.68
2023-02-11T09:16:13.758Z,94.85
2023-02-11T09:17:13.750Z,94.48
2023-02-11T09:18:13.728Z,94.37
2023-02-11T09:19:13.726Z,94.54
2023-02-11T09:20:13.735Z,94.58
2023-02-11T09:21:13.676Z,94.68
2023-02-11T09:22:13.712Z,94.64
2023-02-11T09:23:13.684Z,94.54
2023-02-11T09:24:13.667Z,94.33
2023-02-11T09:25:45.557Z,94.43
2023-02-11T09:26:45.635Z,94.33
2023-02-11T09:27:45.567Z,94.12
2023-02-11T09:28:13.696Z,94.18
2023-02-11T09:29:45.660Z,94.43
2023-02-11T09:30:14.293Z,94.60
2023-02-11T09:31:45.582Z,94.43
2023-02-11T09:32:45.529Z,94.33
2023-02-11T09:33:45.502Z,94.43
2023-02-11T09:34:45.548Z,94.12
2023-02-11T09:35:13.594Z,94.12
2023-02-11T09:36:45.483Z,94.18
2023-02-11T09:37:13.573Z,94.18
2023-02-11T09:38:13.581Z,94.08
2023-02-11T09:39:13.556Z,94.18
2023-02-11T09:40:45.497Z,94.29
2023-02-11T09:41:13.587Z,93.83
2023-02-11T09:42:45.465Z,93.77
2023-02-11T09:43:13.528Z,94.18
2023-02-11T09:44:45.438Z,94.29
2023-02-11T09:45:13.517Z,94.24
2023-02-11T09:46:45.462Z,94.49
2023-02-11T09:47:13.518Z,94.60
2023-02-11T09:48:45.433Z,94.29
2023-02-11T09:49:13.473Z,94.60
2023-02-11T09:50:45.392Z,94.56
2023-02-11T09:51:13.471Z,94.70
2023-02-11T09:52:45.425Z,94.18
2023-02-11T09:53:13.481Z,94.45
2023-02-11T09:54:45.361Z,94.04
2023-02-11T09:55:45.356Z,94.45
2023-02-11T09:56:13.464Z,94.56
2023-02-11T09:57:45.550Z,94.24
2023-02-11T09:58:45.418Z,94.24
2023-02-11T09:59:13.446Z,93.93
2023-02-11T10:00:13.438Z,94.24
2023-02-11T10:01:13.470Z,94.41
2023-02-11T10:02:13.405Z,94.20
2023-02-11T10:03:13.425Z,94.35
2023-02-11T10:04:13.419Z,94.45
2023-02-11T10:05:13.414Z,94.31
2023-02-11T10:06:13.376Z,94.51
2023-02-11T10:07:13.465Z,94.04
2023-02-11T10:08:16.824Z,94.20
2023-02-11T10:09:14.360Z,94.20
2023-02-11T10:10:13.341Z,94.62
2023-02-11T10:11:25.998Z,94.31
2023-02-11T10:12:15.323Z,94.31
2023-02-11T10:13:13.325Z,94.41
2023-02-11T10:14:13.304Z,94.20
2023-02-11T10:15:13.316Z,94.31
2023-02-11T10:16:13.331Z,94.66
2023-02-11T10:17:13.283Z,94.62
2023-02-11T10:18:13.268Z,94.31
2023-02-11T10:19:13.267Z,94.31
2023-02-11T10:20:16.724Z,94.10
2023-02-11T10:21:14.267Z,94.20
2023-02-11T10:22:13.279Z,94.20
2023-02-11T10:23:13.270Z,93.89
2023-02-11T10:24:13.244Z,94.20
2023-02-11T10:25:13.273Z,94.10
2023-02-11T10:26:13.235Z,94.20
2023-02-11T10:27:13.216Z,93.89
2023-02-11T10:28:13.220Z,94.31
2023-02-11T10:29:13.197Z,93.85
2023-02-11T10:30:13.201Z,93.43
2023-02-11T10:31:13.273Z,93.85
2023-02-11T10:32:13.333Z,93.74
2023-02-11T10:33:13.244Z,93.85
2023-02-11T10:34:13.203Z,93.74
2023-02-11T10:35:13.195Z,94.06
2023-02-11T10:36:13.220Z,93.99
2023-02-11T10:37:13.252Z,94.31
2023-02-11T10:38:13.210Z,94.41
2023-02-11T10:39:13.142Z,94.20
2023-02-11T10:40:13.145Z,93.64
2023-02-11T10:41:13.141Z,93.74
2023-02-11T10:42:13.109Z,94.26
2023-02-11T10:43:13.082Z,93.64
2023-02-11T10:44:13.068Z,93.74
2023-02-11T10:45:13.171Z,93.95
2023-02-11T10:46:13.070Z,94.20
2023-02-11T10:47:13.062Z,94.06
2023-02-11T10:48:15.550Z,94.06
2023-02-11T10:49:13.090Z,94.20
2023-02-11T10:50:13.063Z,93.95
2023-02-11T10:51:14.540Z,93.79
2023-02-11T10:52:14.032Z,93.74
2023-02-11T10:53:13.040Z,93.89
2023-02-11T10:54:13.859Z,93.85
2023-02-11T10:55:13.983Z,93.74
2023-02-11T10:56:13.057Z,93.95
2023-02-11T10:57:12.974Z,93.12
2023-02-11T10:58:13.002Z,92.91
2023-02-11T10:59:12.960Z,93.29
2023-02-11T11:00:13.200Z,93.29
2023-02-11T11:01:23.975Z,93.18
2023-02-11T11:02:15.014Z,92.91
2023-02-11T11:03:13.035Z,93.08
2023-02-11T11:04:13.017Z,92.72
2023-02-11T11:05:12.910Z,92.97
2023-02-11T11:06:12.926Z,92.87
2023-02-11T11:07:13.035Z,92.72
2023-02-11T11:08:12.906Z,92.77
2023-02-11T11:09:13.029Z,92.87
2023-02-11T11:10:12.935Z,92.21
2023-02-11T11:11:12.884Z,92.52
2023-02-11T11:12:12.927Z,92.00
2023-02-11T11:13:13.005Z,92.42
2023-02-11T11:14:12.873Z,92.21
2023-02-11T11:15:12.921Z,92.21
2023-02-11T11:16:12.901Z,92.17
2023-02-11T11:17:12.822Z,91.86
2023-02-11T11:18:21.331Z,91.96
2023-02-11T11:19:14.848Z,91.34
2023-02-11T11:20:12.931Z,91.65
2023-02-11T11:21:12.802Z,91.96
2023-02-11T11:22:12.863Z,91.34
2023-02-11T11:23:12.843Z,91.69
2023-02-11T11:24:12.800Z,91.59
2023-02-11T11:25:12.917Z,92.07
2023-02-11T11:26:12.794Z,91.49
2023-02-11T11:27:12.754Z,92.07
2023-02-11T11:28:12.839Z,91.34
2023-02-11T11:29:12.752Z,91.44
2023-02-11T11:30:12.940Z,91.44
2023-02-11T11:31:12.842Z,91.75
2023-02-11T11:32:12.836Z,91.50
2023-02-11T11:33:12.746Z,91.44
2023-02-11T11:34:12.679Z,91.61
2023-02-11T11:35:12.699Z,91.75
2023-02-11T11:36:12.737Z,91.71
2023-02-11T11:37:12.674Z,91.40
2023-02-11T11:38:12.870Z,91.40
2023-02-11T11:39:12.675Z,91.20
2023-02-11T11:40:12.773Z,90.99
2023-02-11T11:41:12.836Z,91.03
2023-02-11T11:42:12.676Z,91.09
2023-02-11T11:43:12.634Z,90.68
2023-02-11T11:44:13.597Z,91.09
2023-02-11T11:45:12.682Z,90.64
2023-02-11T11:46:13.157Z,90.43
2023-02-11T11:47:12.703Z,89.92
2023-02-11T11:48:12.592Z,89.50
2023-02-11T11:49:12.551Z,89.40
2023-02-11T11:50:12.564Z,89.81
2023-02-11T11:51:12.574Z,89.81
2023-02-11T11:52:12.614Z,88.98
2023-02-11T11:53:12.546Z,88.74
2023-02-11T11:54:12.629Z,89.05
2023-02-11T11:55:12.543Z,88.32
2023-02-11T11:56:12.688Z,88.53
2023-02-11T11:57:12.506Z,88.32
2023-02-11T11:58:12.569Z,88.98
2023-02-11T11:59:12.503Z,88.95
2023-02-11T12:00:12.496Z,88.95
2023-02-11T12:01:12.535Z,89.05
2023-02-11T12:02:12.599Z,89.05
2023-02-11T12:03:12.514Z,89.25
2023-02-11T12:04:12.494Z,89.15
2023-02-11T12:05:12.438Z,88.32
2023-02-11T12:06:12.495Z,88.49
2023-02-11T12:07:12.434Z,89.01
2023-02-11T12:08:12.442Z,88.90
2023-02-11T12:09:12.547Z,88.08
2023-02-11T12:10:12.396Z,87.98
2023-02-11T12:11:12.448Z,89.01
2023-02-11T12:12:12.386Z,88.56
2023-02-11T12:13:12.411Z,88.14
2023-02-11T12:14:12.392Z,87.63
2023-02-11T12:15:12.459Z,87.73
2023-02-11T12:16:13.922Z,87.48
2023-02-11T12:17:12.350Z,87.59
2023-02-11T12:18:12.384Z,87.73
2023-02-11T12:19:12.356Z,87.48
2023-02-11T12:20:12.378Z,87.90
2023-02-11T12:21:12.357Z,87.90
2023-02-11T12:22:12.366Z,87.69
2023-02-11T12:23:44.247Z,86.87
2023-02-11T12:24:12.326Z,86.55
2023-02-11T12:25:12.308Z,87.48
2023-02-11T12:26:12.295Z,87.17
2023-02-11T12:27:12.298Z,87.17
2023-02-11T12:28:12.333Z,87.48
2023-02-11T12:29:12.272Z,87.24
2023-02-11T12:30:12.263Z,87.24
2023-02-11T12:31:13.290Z,86.82
2023-02-11T12:32:13.381Z,86.45
2023-02-11T12:33:12.242Z,86.97
2023-02-11T12:34:12.246Z,86.93
2023-02-11T12:35:12.257Z,86.21
2023-02-11T12:36:12.241Z,86.82
2023-02-11T12:37:12.231Z,86.35
2023-02-11T12:38:12.222Z,86.61
2023-02-11T12:39:12.210Z,86.72
2023-02-11T12:40:12.198Z,86.61
2023-02-11T12:41:12.223Z,87.34
2023-02-11T12:42:12.217Z,86.82
2023-02-11T12:43:12.179Z,87.34
2023-02-11T12:44:12.157Z,86.82
2023-02-11T12:45:12.227Z,87.24
2023-02-11T12:46:12.247Z,87.30
2023-02-11T12:47:12.165Z,86.61
2023-02-11T12:48:12.141Z,86.93
2023-02-11T12:49:12.108Z,87.24
2023-02-11T12:50:12.138Z,87.03
2023-02-11T12:51:12.139Z,87.59
2023-02-11T12:52:12.106Z,87.38
2023-02-11T12:53:12.109Z,87.99
2023-02-11T12:54:12.075Z,87.48
2023-02-11T12:55:12.096Z,87.59
2023-02-11T12:56:12.069Z,87.99
2023-02-11T12:57:12.083Z,87.69
2023-02-11T12:58:12.057Z,88.10
2023-02-11T12:59:14.306Z,87.75
2023-02-11T13:00:13.033Z,87.54
2023-02-11T13:01:12.163Z,87.24
2023-02-11T13:02:12.119Z,87.24
2023-02-11T13:03:12.046Z,87.59
2023-02-11T13:04:12.009Z,87.44
2023-02-11T13:05:14.265Z,87.59
2023-02-11T13:06:13.036Z,87.96
2023-02-11T13:07:11.997Z,87.65